createdAt,value
2022-08-03T00:01:37.326Z,24.08
2022-08-03T00:04:05.466Z,24.06
2022-08-03T00:06:36.969Z,24.04
2022-08-03T00:09:05.800Z,24.01
2022-08-03T00:11:33.643Z,23.98
2022-08-03T00:14:01.264Z,23.96
2022-08-03T00:16:28.557Z,23.93
2022-08-03T00:18:56.016Z,23.88
2022-08-03T00:21:23.371Z,23.84
2022-08-03T00:23:52.130Z,23.81
2022-08-03T00:26:21.365Z,23.80
2022-08-03T00:28:49.647Z,23.77
2022-08-03T00:31:17.966Z,23.76
2022-08-03T00:34:04.420Z,23.75
2022-08-03T00:36:33.716Z,23.73
2022-08-03T00:39:01.277Z,23.70
2022-08-03T00:41:28.839Z,23.70
2022-08-03T00:43:56.192Z,23.70
2022-08-03T00:46:23.754Z,23.62
2022-08-03T00:48:51.297Z,23.50
2022-08-03T00:51:19.693Z,23.48
2022-08-03T00:53:47.047Z,23.43
2022-08-03T00:56:15.735Z,23.38
2022-08-03T00:58:44.318Z,23.30
2022-08-03T01:01:12.919Z,23.13
2022-08-03T01:03:40.770Z,23.11
2022-08-03T01:06:17.034Z,23.14
2022-08-03T01:08:53.913Z,23.25
2022-08-03T01:12:00.895Z,23.37
2022-08-03T01:14:36.236Z,23.47
2022-08-03T01:17:13.735Z,23.50
2022-08-03T01:19:50.319Z,23.51
2022-08-03T01:22:28.621Z,23.51
2022-08-03T01:25:13.891Z,23.51
2022-08-03T01:28:08.690Z,23.49
2022-08-03T01:30:38.709Z,23.46
2022-08-03T01:33:26.851Z,23.49
2022-08-03T01:35:58.816Z,23.52
2022-08-03T01:38:38.672Z,23.51
2022-08-03T01:41:08.327Z,23.49
2022-08-03T01:44:26.644Z,23.44
2022-08-03T01:46:23.063Z,23.35
2022-08-03T01:48:50.509Z,23.28
2022-08-03T01:51:19.352Z,23.20
2022-08-03T01:53:47.576Z,23.19
2022-08-03T01:56:14.932Z,23.19
2022-08-03T01:58:42.494Z,23.15
2022-08-03T02:01:09.894Z,23.15
2022-08-03T02:03:38.772Z,23.16
2022-08-03T02:07:02.702Z,23.15
2022-08-03T02:09:14.717Z,23.11
2022-08-03T02:11:42.481Z,23.07
2022-08-03T02:14:10.042Z,23.10
2022-08-03T02:16:37.396Z,23.18
2022-08-03T02:19:06.658Z,23.23
2022-08-03T02:21:56.802Z,23.27
2022-08-03T02:24:23.526Z,23.29
2022-08-03T02:26:52.213Z,23.27
2022-08-03T02:29:22.089Z,23.25
2022-08-03T02:32:13.433Z,23.23
2022-08-03T02:34:41.827Z,23.22
2022-08-03T02:37:09.181Z,23.28
2022-08-03T02:39:36.642Z,23.34
2022-08-03T02:42:05.687Z,23.33
2022-08-03T02:44:33.809Z,23.32
2022-08-03T02:47:05.860Z,23.30
2022-08-03T02:49:42.056Z,23.25
2022-08-03T02:52:20.254Z,23.23
2022-08-03T02:54:49.225Z,23.21
2022-08-03T02:57:16.492Z,23.20
2022-08-03T02:59:43.847Z,23.26
2022-08-03T03:02:11.408Z,23.34
2022-08-03T03:04:38.769Z,23.37
2022-08-03T03:07:22.404Z,23.37
2022-08-03T03:09:50.476Z,23.33
2022-08-03T03:12:18.181Z,23.30
2022-08-03T03:14:45.693Z,23.31
2022-08-03T03:17:13.054Z,23.33
2022-08-03T03:19:41.329Z,23.33
2022-08-03T03:22:08.998Z,23.33
2022-08-03T03:24:36.651Z,23.40
2022-08-03T03:27:04.171Z,23.51
2022-08-03T03:29:36.561Z,23.56
2022-08-03T03:32:09.113Z,23.59
2022-08-03T03:34:37.029Z,23.61
2022-08-03T03:37:05.514Z,23.66
2022-08-03T03:39:32.870Z,23.70
2022-08-03T03:42:00.633Z,23.75
2022-08-03T03:44:31.365Z,23.77
2022-08-03T03:46:58.925Z,23.79
2022-08-03T03:49:27.063Z,23.82
2022-08-03T03:51:55.379Z,23.83
2022-08-03T03:54:25.458Z,23.86
2022-08-03T03:56:56.642Z,23.96
2022-08-03T03:59:24.099Z,24.09
2022-08-03T04:01:59.298Z,24.17
2022-08-03T04:04:45.435Z,24.22
2022-08-03T04:07:31.021Z,24.24
2022-08-03T04:10:17.421Z,24.26
2022-08-03T04:12:50.420Z,24.25
2022-08-03T04:15:20.149Z,24.24
2022-08-03T04:17:47.677Z,24.27
2022-08-03T04:20:15.135Z,24.33
2022-08-03T04:22:42.491Z,24.42
2022-08-03T04:25:10.258Z,24.51
2022-08-03T04:27:39.105Z,24.64
2022-08-03T04:30:07.423Z,24.72
2022-08-03T04:32:36.071Z,24.78
2022-08-03T04:35:03.467Z,24.79
2022-08-03T04:37:46.368Z,24.78
2022-08-03T04:40:26.133Z,24.78
2022-08-03T04:42:57.276Z,24.75
2022-08-03T04:45:24.733Z,24.75
2022-08-03T04:47:52.092Z,24.75
2022-08-03T04:50:21.529Z,24.79
2022-08-03T04:53:05.592Z,24.87
2022-08-03T04:55:35.148Z,24.98
2022-08-03T04:58:03.428Z,25.08
2022-08-03T05:00:31.200Z,25.17
2022-08-03T05:02:59.161Z,25.22
2022-08-03T05:05:26.616Z,25.22
2022-08-03T05:08:13.941Z,25.24
2022-08-03T05:10:41.502Z,25.24
2022-08-03T05:13:12.340Z,25.26
2022-08-03T05:15:43.074Z,25.30
2022-08-03T05:18:14.088Z,25.32
2022-08-03T05:20:42.083Z,25.39
2022-08-03T05:23:09.954Z,25.45
2022-08-03T05:25:38.024Z,25.48
2022-08-03T05:28:06.812Z,25.55
2022-08-03T05:30:35.090Z,25.63
2022-08-03T05:33:03.825Z,25.64
2022-08-03T05:36:02.171Z,25.54
2022-08-03T05:38:28.782Z,25.53
2022-08-03T05:41:22.540Z,25.63
2022-08-03T05:43:54.100Z,25.75
2022-08-03T05:46:22.818Z,25.79
2022-08-03T05:48:50.272Z,25.84
2022-08-03T05:51:17.731Z,25.87
2022-08-03T05:53:44.984Z,25.92
2022-08-03T05:56:14.975Z,25.98
2022-08-03T05:58:45.124Z,26.07
2022-08-03T06:01:12.882Z,26.11
2022-08-03T06:03:40.445Z,26.12
2022-08-03T06:06:08.108Z,26.11
2022-08-03T06:08:35.780Z,26.12
2022-08-03T06:11:05.908Z,26.13
2022-08-03T06:13:33.655Z,26.17
2022-08-03T06:16:01.030Z,26.23
2022-08-03T06:18:28.467Z,26.25
2022-08-03T06:20:55.928Z,26.28
2022-08-03T06:23:52.364Z,26.29
2022-08-03T06:26:11.042Z,26.26
2022-08-03T06:28:51.571Z,26.25
2022-08-03T06:31:33.008Z,26.24
2022-08-03T06:34:33.510Z,26.22
2022-08-03T06:36:52.562Z,26.17
2022-08-03T06:39:20.835Z,26.18
2022-08-03T06:41:52.602Z,26.15
2022-08-03T06:44:20.257Z,26.02
2022-08-03T06:46:48.133Z,25.96
2022-08-03T06:49:15.766Z,25.99
2022-08-03T06:52:04.568Z,26.01
2022-08-03T06:54:33.309Z,26.04
2022-08-03T06:57:01.346Z,26.03
2022-08-03T07:00:08.895Z,26.08
2022-08-03T07:02:19.286Z,26.19
2022-08-03T07:04:48.665Z,26.29
2022-08-03T07:07:20.856Z,26.32
2022-08-03T07:09:56.339Z,26.33
2022-08-03T07:12:25.680Z,26.36
2022-08-03T07:14:56.662Z,26.42
2022-08-03T07:17:28.277Z,26.50
2022-08-03T07:19:56.044Z,26.56
2022-08-03T07:22:24.117Z,26.64
2022-08-03T07:24:51.993Z,26.75
2022-08-03T07:27:19.647Z,26.80
2022-08-03T07:29:47.098Z,26.82
2022-08-03T07:32:14.762Z,26.87
2022-08-03T07:34:42.633Z,26.91
2022-08-03T07:37:10.407Z,26.92
2022-08-03T07:39:37.854Z,26.91
2022-08-03T07:42:06.968Z,26.85
2022-08-03T07:44:34.513Z,26.81
2022-08-03T07:47:03.420Z,26.84
2022-08-03T07:49:31.652Z,26.87
2022-08-03T07:52:18.587Z,26.91
2022-08-03T07:54:46.153Z,26.94
2022-08-03T07:57:13.510Z,26.93
2022-08-03T07:59:56.640Z,26.90
2022-08-03T08:02:28.696Z,26.89
2022-08-03T08:04:56.052Z,26.93
2022-08-03T08:07:25.636Z,26.96
2022-08-03T08:09:52.912Z,27.03
2022-08-03T08:12:20.368Z,27.11
2022-08-03T08:14:48.035Z,27.19
2022-08-03T08:17:15.390Z,27.25
2022-08-03T08:19:47.499Z,27.27
2022-08-03T08:22:30.257Z,27.35
2022-08-03T08:24:59.662Z,27.42
2022-08-03T08:27:28.873Z,27.49
2022-08-03T08:30:19.585Z,27.57
2022-08-03T08:32:47.446Z,27.63
2022-08-03T08:35:15.006Z,27.64
2022-08-03T08:37:43.589Z,27.62
2022-08-03T08:40:20.981Z,27.60
2022-08-03T08:42:58.070Z,27.60
2022-08-03T08:45:26.647Z,27.66
2022-08-03T08:47:58.138Z,27.69
2022-08-03T08:50:29.612Z,27.67
2022-08-03T08:52:57.419Z,27.71
2022-08-03T08:55:25.079Z,27.80
2022-08-03T08:58:02.451Z,27.86
2022-08-03T09:00:31.283Z,27.89
2022-08-03T09:02:58.615Z,27.83
2022-08-03T09:05:47.386Z,27.77
2022-08-03T09:08:13.704Z,27.77
2022-08-03T09:10:41.569Z,27.82
2022-08-03T09:13:09.027Z,27.89
2022-08-03T09:15:38.533Z,27.97
2022-08-03T09:18:05.888Z,28.08
2022-08-03T09:20:34.473Z,28.13
2022-08-03T09:23:43.794Z,28.11
2022-08-03T09:25:59.804Z,28.09
2022-08-03T09:29:00.177Z,28.11
2022-08-03T09:31:15.095Z,28.15
2022-08-03T09:33:48.971Z,28.22
2022-08-03T09:36:36.284Z,28.30
2022-08-03T09:39:11.773Z,28.36
2022-08-03T09:41:40.152Z,28.35
2022-08-03T09:44:07.610Z,28.36
2022-08-03T09:46:54.942Z,28.37
2022-08-03T09:49:22.655Z,28.37
2022-08-03T09:52:33.608Z,28.35
2022-08-03T09:54:37.581Z,28.29
2022-08-03T09:57:05.247Z,28.24
2022-08-03T09:59:33.461Z,28.23
2022-08-03T10:02:01.287Z,28.28
2022-08-03T10:04:28.745Z,28.35
2022-08-03T10:07:22.928Z,28.40
2022-08-03T10:10:28.916Z,28.46
2022-08-03T10:12:49.276Z,28.50
2022-08-03T10:16:21.662Z,28.55
2022-08-03T10:18:04.778Z,28.64
2022-08-03T10:20:33.341Z,28.73
2022-08-03T10:23:00.616Z,28.82
2022-08-03T10:25:32.918Z,28.85
2022-08-03T10:28:00.968Z,28.92
2022-08-03T10:30:28.528Z,28.98
2022-08-03T10:33:02.018Z,29.05
2022-08-03T10:35:29.476Z,29.10
2022-08-03T10:38:01.030Z,29.10
2022-08-03T10:40:47.957Z,29.09
2022-08-03T10:43:23.187Z,29.09
2022-08-03T10:45:50.443Z,29.07
2022-08-03T10:48:18.714Z,29.05
2022-08-03T10:50:46.751Z,29.02
2022-08-03T10:53:14.743Z,29.01
2022-08-03T10:56:05.548Z,29.00
2022-08-03T10:58:53.200Z,28.97
2022-08-03T11:03:55.382Z,29.04
2022-08-03T11:06:25.236Z,29.13
2022-08-03T11:09:10.776Z,29.19
2022-08-03T11:11:39.562Z,29.20
2022-08-03T11:14:10.607Z,29.21
2022-08-03T11:16:43.496Z,29.21
2022-08-03T11:19:12.346Z,29.19
2022-08-03T11:21:49.877Z,29.15
2022-08-03T11:24:47.849Z,29.13
2022-08-03T11:27:15.716Z,29.07
2022-08-03T11:30:09.768Z,29.02
2022-08-03T11:32:38.303Z,29.04
2022-08-03T11:35:35.733Z,29.10
2022-08-03T11:38:05.340Z,29.19
2022-08-03T11:40:42.024Z,29.21
2022-08-03T11:43:31.912Z,29.22
2022-08-03T11:46:06.354Z,29.26
2022-08-03T11:48:43.382Z,29.33
2022-08-03T11:51:30.120Z,29.38
2022-08-03T11:54:04.952Z,29.44
2022-08-03T11:56:48.282Z,29.48
2022-08-03T11:59:20.677Z,29.51
2022-08-03T12:01:49.138Z,29.50
2022-08-03T12:04:16.765Z,29.48
2022-08-03T12:06:59.614Z,29.49
2022-08-03T12:09:26.866Z,29.49
2022-08-03T12:11:59.386Z,29.49
2022-08-03T12:14:48.291Z,29.51
2022-08-03T12:17:16.945Z,29.50
2022-08-03T12:19:44.756Z,29.46
2022-08-03T12:22:12.124Z,29.40
2022-08-03T12:24:43.879Z,29.36
2022-08-03T12:27:11.498Z,29.31
2022-08-03T12:29:39.205Z,29.30
2022-08-03T12:32:06.662Z,29.31
2022-08-03T12:34:49.678Z,29.35
2022-08-03T12:37:22.590Z,29.40
2022-08-03T12:40:09.625Z,29.51
2022-08-03T12:42:39.195Z,29.63
2022-08-03T12:45:20.835Z,29.73
2022-08-03T12:47:52.123Z,29.81
2022-08-03T12:50:33.103Z,29.86
2022-08-03T12:53:01.667Z,29.90
2022-08-03T12:55:56.724Z,29.97
2022-08-03T12:58:35.769Z,30.02
2022-08-03T13:01:09.471Z,30.01
2022-08-03T13:03:42.800Z,29.97
2022-08-03T13:06:26.250Z,29.97
2022-08-03T13:09:07.181Z,30.01
2022-08-03T13:11:57.660Z,30.03
2022-08-03T13:14:23.616Z,30.00
2022-08-03T13:16:51.313Z,29.94
2022-08-03T13:19:18.668Z,29.87
2022-08-03T13:22:02.242Z,29.84
2022-08-03T13:24:32.860Z,29.84
2022-08-03T13:27:00.865Z,29.90
2022-08-03T13:29:48.443Z,29.96
2022-08-03T13:32:16.097Z,30.05
2022-08-03T13:34:43.450Z,30.16
2022-08-03T13:37:12.442Z,30.28
2022-08-03T13:39:57.244Z,30.38
2022-08-03T13:42:33.657Z,30.44
2022-08-03T13:45:01.036Z,30.46
2022-08-03T13:47:29.309Z,30.48
2022-08-03T13:50:01.612Z,30.46
2022-08-03T13:52:34.567Z,30.46
2022-08-03T13:55:03.103Z,30.47
2022-08-03T13:58:02.452Z,30.47
2022-08-03T14:00:26.960Z,30.50
2022-08-03T14:03:06.766Z,30.50
2022-08-03T14:05:40.596Z,30.46
2022-08-03T14:08:08.064Z,30.44
2022-08-03T14:10:45.033Z,30.41
2022-08-03T14:13:16.967Z,30.37
2022-08-03T14:15:51.006Z,30.35
2022-08-03T14:18:29.291Z,30.38
2022-08-03T14:21:05.818Z,30.40
2022-08-03T14:23:34.071Z,30.40
2022-08-03T14:26:01.429Z,30.38
2022-08-03T14:28:29.118Z,30.37
2022-08-03T14:30:56.752Z,30.34
2022-08-03T14:33:24.109Z,30.32
2022-08-03T14:35:51.841Z,30.33
2022-08-03T14:38:19.121Z,30.31
2022-08-03T14:40:46.786Z,30.22
2022-08-03T14:43:14.549Z,30.11
2022-08-03T14:45:42.423Z,30.06
2022-08-03T14:50:33.508Z,29.99
2022-08-03T14:50:57.511Z,29.86
2022-08-03T14:53:25.167Z,29.79
2022-08-03T14:55:53.787Z,29.77
2022-08-03T14:58:22.535Z,29.77
2022-08-03T15:00:50.943Z,29.76
2022-08-03T15:03:24.047Z,29.75
2022-08-03T15:05:55.675Z,29.72
2022-08-03T15:08:24.263Z,29.73
2022-08-03T15:10:51.722Z,29.77
2022-08-03T15:13:20.195Z,29.81
2022-08-03T15:15:48.232Z,29.82
2022-08-03T15:18:16.134Z,29.85
2022-08-03T15:20:45.296Z,29.88
2022-08-03T15:23:14.232Z,29.93
2022-08-03T15:26:31.914Z,29.99
2022-08-03T15:28:29.005Z,30.03
2022-08-03T15:30:56.543Z,30.02
2022-08-03T15:33:24.020Z,30.01
2022-08-03T15:35:52.093Z,29.95
2022-08-03T15:38:19.446Z,29.86
2022-08-03T15:40:47.009Z,29.78
2022-08-03T15:43:14.582Z,29.71
2022-08-03T15:45:43.359Z,29.65
2022-08-03T15:48:10.577Z,29.60
2022-08-03T15:50:38.172Z,29.57
2022-08-03T15:53:05.531Z,29.56
2022-08-03T15:55:33.188Z,29.54
2022-08-03T15:59:09.686Z,29.51
2022-08-03T16:00:47.874Z,29.48
2022-08-03T16:03:15.223Z,29.45
2022-08-03T16:05:42.888Z,29.46
2022-08-03T16:08:13.727Z,29.47
2022-08-03T16:10:41.384Z,29.48
2022-08-03T16:13:08.950Z,29.50
2022-08-03T16:15:38.503Z,29.52
2022-08-03T16:18:09.182Z,29.56
2022-08-03T16:20:36.646Z,29.57
2022-08-03T16:23:11.037Z,29.57
2022-08-03T16:25:39.875Z,29.54
2022-08-03T16:28:13.486Z,29.51
2022-08-03T16:30:43.063Z,29.46
2022-08-03T16:33:10.928Z,29.42
2022-08-03T16:35:38.492Z,29.40
2022-08-03T16:38:09.744Z,29.35
2022-08-03T16:40:38.435Z,29.30
2022-08-03T16:43:18.694Z,29.27
2022-08-03T16:45:47.217Z,29.26
2022-08-03T16:48:15.600Z,29.24
2022-08-03T16:50:43.213Z,29.19
2022-08-03T16:53:15.613Z,29.11
2022-08-03T16:55:53.463Z,29.02
2022-08-03T16:58:41.285Z,28.97
2022-08-03T17:01:21.011Z,28.93
2022-08-03T17:04:01.951Z,28.84
2022-08-03T17:06:36.330Z,28.76
2022-08-03T17:09:09.886Z,28.70
2022-08-03T17:11:44.121Z,28.64
2022-08-03T17:14:23.156Z,28.60
2022-08-03T17:16:58.569Z,28.58
2022-08-03T17:19:26.720Z,28.57
2022-08-03T17:22:01.566Z,28.55
2022-08-03T17:24:32.998Z,28.54
2022-08-03T17:27:03.389Z,28.54
2022-08-03T17:29:32.995Z,28.54
2022-08-03T17:32:07.789Z,28.53
2022-08-03T17:34:38.971Z,28.53
2022-08-03T17:37:06.990Z,28.53
2022-08-03T17:39:59.604Z,28.48
2022-08-03T17:42:30.542Z,28.44
2022-08-03T17:45:02.404Z,28.40
2022-08-03T17:47:41.271Z,28.37
2022-08-03T17:50:24.192Z,28.32
2022-08-03T17:53:01.102Z,28.27
2022-08-03T17:55:55.831Z,28.24
2022-08-03T17:58:37.235Z,28.21
2022-08-03T18:01:57.366Z,28.15
2022-08-03T18:04:14.091Z,28.09
2022-08-03T18:06:56.194Z,28.05
2022-08-03T18:10:04.772Z,28.03
2022-08-03T18:12:28.532Z,28.03
2022-08-03T18:15:01.185Z,28.03
2022-08-03T18:17:55.766Z,28.05
2022-08-03T18:20:34.156Z,28.07
2022-08-03T18:23:07.821Z,28.07
2022-08-03T18:25:45.368Z,28.07
2022-08-03T18:28:18.626Z,28.03
2022-08-03T18:30:53.336Z,28.01
2022-08-03T18:34:18.818Z,27.96
2022-08-03T18:36:08.935Z,27.92
2022-08-03T18:38:40.114Z,27.92
2022-08-03T18:41:12.909Z,27.91
2022-08-03T18:43:47.732Z,27.90
2022-08-03T18:47:16.739Z,27.84
2022-08-03T18:50:05.803Z,27.81
2022-08-03T18:52:52.857Z,27.80
2022-08-03T18:55:33.158Z,27.78
2022-08-03T18:58:15.770Z,27.77
2022-08-03T19:00:55.097Z,27.76
2022-08-03T19:03:42.858Z,27.72
2022-08-03T19:06:19.746Z,27.70
2022-08-03T19:08:51.049Z,27.68
2022-08-03T19:11:28.181Z,27.67
2022-08-03T19:13:56.882Z,27.66
2022-08-03T19:16:30.984Z,27.66
2022-08-03T19:18:59.837Z,27.66
2022-08-03T19:21:29.236Z,27.66
2022-08-03T19:24:05.599Z,27.66
2022-08-03T19:26:38.652Z,27.66
2022-08-03T19:29:10.731Z,27.61
2022-08-03T19:31:57.968Z,27.55
2022-08-03T19:37:19.564Z,27.39
2022-08-03T19:39:56.751Z,27.28
2022-08-03T19:42:32.344Z,27.22
2022-08-03T19:45:11.203Z,27.20
2022-08-03T19:47:45.486Z,27.21
2022-08-03T19:50:14.286Z,27.21
2022-08-03T19:52:44.215Z,27.19
2022-08-03T19:55:12.637Z,27.18
2022-08-03T19:57:41.521Z,27.09
2022-08-03T20:00:12.146Z,27.02
2022-08-03T20:02:42.108Z,26.94
2022-08-03T20:05:14.792Z,26.87
2022-08-03T20:07:47.719Z,26.84
2022-08-03T20:10:16.943Z,26.83
2022-08-03T20:12:45.560Z,26.84
2022-08-03T20:15:13.181Z,26.88
2022-08-03T20:17:56.692Z,26.91
2022-08-03T20:20:31.085Z,26.90
2022-08-03T20:22:59.210Z,26.83
2022-08-03T20:25:38.516Z,26.79
2022-08-03T20:28:26.842Z,26.73
2022-08-03T20:30:54.289Z,26.68
2022-08-03T20:33:27.896Z,26.67
2022-08-03T20:36:08.969Z,26.69
2022-08-03T20:38:43.855Z,26.71
2022-08-03T20:41:18.072Z,26.73
2022-08-03T20:43:46.086Z,26.75
2022-08-03T20:46:30.007Z,26.75
2022-08-03T20:49:04.343Z,26.76
2022-08-03T20:51:50.051Z,26.73
2022-08-03T20:54:29.752Z,26.70
2022-08-03T20:57:03.894Z,26.69
2022-08-03T20:59:50.500Z,26.68
2022-08-03T21:02:30.322Z,26.69
2022-08-03T21:05:03.526Z,26.67
2022-08-03T21:07:45.573Z,26.64
2022-08-03T21:10:29.288Z,26.63
2022-08-03T21:13:02.505Z,27.48
2022-08-03T21:13:16.700Z,26.61
2022-08-03T21:16:12.273Z,26.59
2022-08-03T21:18:44.188Z,26.55
2022-08-03T21:21:12.983Z,26.52
2022-08-03T21:23:48.326Z,26.50
2022-08-03T21:26:18.788Z,26.47
2022-08-03T21:28:47.450Z,26.42
2022-08-03T21:31:24.336Z,26.38
2022-08-03T21:34:04.020Z,26.37
2022-08-03T21:36:33.356Z,26.35
2022-08-03T21:39:01.180Z,26.31
2022-08-03T21:41:30.095Z,26.27
2022-08-03T21:43:57.675Z,26.23
2022-08-03T21:46:25.241Z,26.19
2022-08-03T21:50:04.479Z,26.16
2022-08-03T21:51:47.802Z,26.12
2022-08-03T21:54:15.259Z,26.09
2022-08-03T21:56:43.227Z,26.05
2022-08-03T21:59:17.000Z,26.02
2022-08-03T22:01:45.772Z,26.01
2022-08-03T22:04:50.547Z,26.01
2022-08-03T22:07:05.932Z,25.96
2022-08-03T22:09:35.544Z,25.89
2022-08-03T22:12:03.109Z,25.82
2022-08-03T22:14:32.913Z,25.78
2022-08-03T22:17:01.085Z,25.77
2022-08-03T22:19:35.097Z,25.78
2022-08-03T22:22:06.244Z,25.79
2022-08-03T22:24:35.625Z,25.80
2022-08-03T22:27:22.017Z,25.81
2022-08-03T22:29:50.324Z,25.83
2022-08-03T22:32:17.679Z,25.85
2022-08-03T22:34:46.365Z,25.87
2022-08-03T22:37:14.232Z,25.86
2022-08-03T22:39:41.659Z,25.83
2022-08-03T22:42:09.150Z,25.84
2022-08-03T22:44:36.814Z,25.92
2022-08-03T22:47:04.989Z,25.98
2022-08-03T22:49:32.750Z,26.02
2022-08-03T22:52:01.743Z,26.04
2022-08-03T22:54:31.760Z,26.03
2022-08-03T22:56:59.119Z,26.01
2022-08-03T22:59:40.257Z,26.00
2022-08-03T23:02:20.448Z,25.95
2022-08-03T23:04:53.142Z,25.92
2022-08-03T23:07:23.311Z,25.91
2022-08-03T23:09:51.019Z,25.88
2022-08-03T23:12:20.181Z,25.84
2022-08-03T23:14:53.101Z,25.81
2022-08-03T23:17:21.992Z,25.79
2022-08-03T23:21:52.894Z,25.75
2022-08-03T23:24:29.441Z,25.68
2022-08-03T23:26:57.903Z,25.67
2022-08-03T23:29:25.254Z,25.74
2022-08-03T23:31:52.608Z,25.82
2022-08-03T23:34:38.499Z,25.85
2022-08-03T23:37:06.227Z,25.83
2022-08-03T23:39:35.132Z,25.81
2022-08-03T23:42:03.329Z,25.81
2022-08-03T23:44:31.300Z,25.79
2022-08-03T23:46:59.064Z,25.76
2022-08-03T23:49:26.623Z,25.73
2022-08-03T23:52:15.792Z,25.70
2022-08-03T23:55:04.651Z,25.65
2022-08-03T23:57:43.987Z,25.62
